sensor_id;sensor_type;location;lat;lon;timestamp;P1;durP1;ratioP1;P2;durP2;ratioP2
52982;SDS011;48698;45.736;13.926;2023-09-30T00:00:14;7.03;;;4.70;;
52982;SDS011;48698;45.736;13.926;2023-09-30T00:05:18;5.60;;;4.67;;
52982;SDS011;48698;45.736;13.926;2023-09-30T00:10:25;7.72;;;4.03;;
52982;SDS011;48698;45.736;13.926;2023-09-30T00:15:29;7.23;;;4.73;;
52982;SDS011;48698;45.736;13.926;2023-09-30T00:20:32;6.47;;;4.83;;
52982;SDS011;48698;45.736;13.926;2023-09-30T00:25:36;8.77;;;4.32;;
52982;SDS011;48698;45.736;13.926;2023-09-30T00:30:39;7.60;;;4.90;;
52982;SDS011;48698;45.736;13.926;2023-09-30T00:35:43;10.97;;;5.77;;
52982;SDS011;48698;45.736;13.926;2023-09-30T00:40:47;7.10;;;5.40;;
52982;SDS011;48698;45.736;13.926;2023-09-30T00:45:58;8.80;;;5.00;;
52982;SDS011;48698;45.736;13.926;2023-09-30T00:51:06;9.23;;;5.18;;
52982;SDS011;48698;45.736;13.926;2023-09-30T00:56:09;10.02;;;5.35;;
52982;SDS011;48698;45.736;13.926;2023-09-30T01:01:14;6.93;;;4.95;;
52982;SDS011;48698;45.736;13.926;2023-09-30T01:06:19;9.02;;;5.10;;
52982;SDS011;48698;45.736;13.926;2023-09-30T01:11:22;12.93;;;5.38;;
52982;SDS011;48698;45.736;13.926;2023-09-30T01:16:26;7.53;;;5.38;;
52982;SDS011;48698;45.736;13.926;2023-09-30T01:21:33;8.30;;;5.70;;
52982;SDS011;48698;45.736;13.926;2023-09-30T01:26:37;7.55;;;5.63;;
52982;SDS011;48698;45.736;13.926;2023-09-30T01:31:41;9.02;;;6.20;;
52982;SDS011;48698;45.736;13.926;2023-09-30T01:36:46;9.88;;;5.93;;
52982;SDS011;48698;45.736;13.926;2023-09-30T01:41:50;10.98;;;6.30;;
52982;SDS011;48698;45.736;13.926;2023-09-30T01:46:53;9.45;;;6.22;;
52982;SDS011;48698;45.736;13.926;2023-09-30T01:51:57;8.73;;;5.93;;
52982;SDS011;48698;45.736;13.926;2023-09-30T02:02:06;8.45;;;5.90;;
52982;SDS011;48698;45.736;13.926;2023-09-30T02:07:10;8.07;;;6.03;;
52982;SDS011;48698;45.736;13.926;2023-09-30T02:12:13;10.75;;;6.60;;
52982;SDS011;48698;45.736;13.926;2023-09-30T02:17:17;7.53;;;5.95;;
52982;SDS011;48698;45.736;13.926;2023-09-30T02:22:20;7.32;;;6.00;;
52982;SDS011;48698;45.736;13.926;2023-09-30T02:27:23;10.88;;;6.07;;
52982;SDS011;48698;45.736;13.926;2023-09-30T02:32:27;10.48;;;6.03;;
52982;SDS011;48698;45.736;13.926;2023-09-30T02:37:34;7.78;;;5.47;;
52982;SDS011;48698;45.736;13.926;2023-09-30T02:42:39;9.57;;;5.57;;
52982;SDS011;48698;45.736;13.926;2023-09-30T02:47:43;11.93;;;5.65;;
52982;SDS011;48698;45.736;13.926;2023-09-30T02:52:47;9.40;;;5.15;;
52982;SDS011;48698;45.736;13.926;2023-09-30T02:57:50;5.95;;;5.13;;
52982;SDS011;48698;45.736;13.926;2023-09-30T03:02:54;10.13;;;5.50;;
52982;SDS011;48698;45.736;13.926;2023-09-30T03:08:00;8.90;;;5.40;;
52982;SDS011;48698;45.736;13.926;2023-09-30T03:13:07;8.07;;;5.70;;
52982;SDS011;48698;45.736;13.926;2023-09-30T03:18:12;9.00;;;5.40;;
52982;SDS011;48698;45.736;13.926;2023-09-30T03:23:17;8.05;;;5.53;;
52982;SDS011;48698;45.736;13.926;2023-09-30T03:28:21;7.77;;;5.50;;
52982;SDS011;48698;45.736;13.926;2023-09-30T03:33:24;10.43;;;6.00;;
52982;SDS011;48698;45.736;13.926;2023-09-30T03:38:29;9.48;;;5.65;;
52982;SDS011;48698;45.736;13.926;2023-09-30T03:43:34;8.10;;;5.57;;
52982;SDS011;48698;45.736;13.926;2023-09-30T03:48:44;7.78;;;5.38;;
52982;SDS011;48698;45.736;13.926;2023-09-30T03:53:48;12.57;;;5.95;;
52982;SDS011;48698;45.736;13.926;2023-09-30T03:58:52;6.25;;;5.43;;
52982;SDS011;48698;45.736;13.926;2023-09-30T04:03:55;9.05;;;6.53;;
52982;SDS011;48698;45.736;13.926;2023-09-30T04:09:00;8.75;;;6.30;;
52982;SDS011;48698;45.736;13.926;2023-09-30T04:19:11;10.07;;;6.40;;
52982;SDS011;48698;45.736;13.926;2023-09-30T04:24:14;14.77;;;6.83;;
52982;SDS011;48698;45.736;13.926;2023-09-30T04:29:18;9.77;;;5.93;;
52982;SDS011;48698;45.736;13.926;2023-09-30T04:34:21;10.00;;;6.47;;
52982;SDS011;48698;45.736;13.926;2023-09-30T04:39:25;8.68;;;6.53;;
52982;SDS011;48698;45.736;13.926;2023-09-30T04:44:29;9.55;;;6.68;;
52982;SDS011;48698;45.736;13.926;2023-09-30T04:49:32;8.53;;;6.90;;
52982;SDS011;48698;45.736;13.926;2023-09-30T04:54:36;9.32;;;6.25;;
52982;SDS011;48698;45.736;13.926;2023-09-30T04:59:40;7.57;;;6.53;;
52982;SDS011;48698;45.736;13.926;2023-09-30T05:04:44;8.63;;;6.20;;
52982;SDS011;48698;45.736;13.926;2023-09-30T05:09:47;10.40;;;6.82;;
52982;SDS011;48698;45.736;13.926;2023-09-30T05:14:58;10.10;;;6.35;;
52982;SDS011;48698;45.736;13.926;2023-09-30T05:20:02;9.93;;;6.40;;
52982;SDS011;48698;45.736;13.926;2023-09-30T05:25:10;9.18;;;6.30;;
52982;SDS011;48698;45.736;13.926;2023-09-30T05:35:19;8.93;;;6.18;;
52982;SDS011;48698;45.736;13.926;2023-09-30T05:40:25;8.90;;;6.03;;
52982;SDS011;48698;45.736;13.926;2023-09-30T05:45:33;8.10;;;6.20;;
52982;SDS011;48698;45.736;13.926;2023-09-30T05:50:39;9.75;;;6.38;;
52982;SDS011;48698;45.736;13.926;2023-09-30T05:55:43;9.35;;;6.82;;
52982;SDS011;48698;45.736;13.926;2023-09-30T06:00:47;8.27;;;6.57;;
52982;SDS011;48698;45.736;13.926;2023-09-30T06:05:50;12.85;;;7.10;;
52982;SDS011;48698;45.736;13.926;2023-09-30T06:10:54;14.40;;;9.43;;
52982;SDS011;48698;45.736;13.926;2023-09-30T06:15:58;11.27;;;6.35;;
52982;SDS011;48698;45.736;13.926;2023-09-30T06:21:02;9.55;;;6.10;;
52982;SDS011;48698;45.736;13.926;2023-09-30T06:26:16;15.00;;;6.00;;
52982;SDS011;48698;45.736;13.926;2023-09-30T06:31:20;7.30;;;5.60;;
52982;SDS011;48698;45.736;13.926;2023-09-30T06:36:24;6.72;;;5.10;;
52982;SDS011;48698;45.736;13.926;2023-09-30T06:41:27;8.20;;;5.50;;
52982;SDS011;48698;45.736;13.926;2023-09-30T06:46:33;19.08;;;5.93;;
52982;SDS011;48698;45.736;13.926;2023-09-30T06:51:37;6.57;;;4.63;;
52982;SDS011;48698;45.736;13.926;2023-09-30T06:56:41;15.13;;;5.13;;
52982;SDS011;48698;45.736;13.926;2023-09-30T07:01:45;8.20;;;5.00;;
52982;SDS011;48698;45.736;13.926;2023-09-30T07:06:49;9.93;;;4.88;;
52982;SDS011;48698;45.736;13.926;2023-09-30T07:11:52;7.00;;;4.60;;
52982;SDS011;48698;45.736;13.926;2023-09-30T07:16:57;9.85;;;5.03;;
52982;SDS011;48698;45.736;13.926;2023-09-30T07:22:01;7.60;;;4.85;;
52982;SDS011;48698;45.736;13.926;2023-09-30T07:27:06;8.23;;;4.80;;
52982;SDS011;48698;45.736;13.926;2023-09-30T07:32:29;8.70;;;4.70;;
52982;SDS011;48698;45.736;13.926;2023-09-30T07:37:32;5.83;;;3.67;;
52982;SDS011;48698;45.736;13.926;2023-09-30T07:42:36;8.43;;;4.00;;
52982;SDS011;48698;45.736;13.926;2023-09-30T07:47:39;10.60;;;4.07;;
52982;SDS011;48698;45.736;13.926;2023-09-30T07:52:43;6.07;;;3.50;;
52982;SDS011;48698;45.736;13.926;2023-09-30T07:57:47;9.88;;;3.88;;
52982;SDS011;48698;45.736;13.926;2023-09-30T08:02:50;6.47;;;3.40;;
52982;SDS011;48698;45.736;13.926;2023-09-30T08:07:54;7.15;;;3.42;;
52982;SDS011;48698;45.736;13.926;2023-09-30T08:12:57;4.93;;;3.47;;
52982;SDS011;48698;45.736;13.926;2023-09-30T08:18:05;15.23;;;4.43;;
52982;SDS011;48698;45.736;13.926;2023-09-30T08:23:11;10.18;;;4.40;;
52982;SDS011;48698;45.736;13.926;2023-09-30T08:28:14;7.90;;;3.60;;
52982;SDS011;48698;45.736;13.926;2023-09-30T08:33:18;8.50;;;3.15;;
52982;SDS011;48698;45.736;13.926;2023-09-30T08:38:21;5.63;;;2.90;;
52982;SDS011;48698;45.736;13.926;2023-09-30T08:57:44;6.85;;;3.00;;
52982;SDS011;48698;45.736;13.926;2023-09-30T09:02:49;7.75;;;2.97;;
52982;SDS011;48698;45.736;13.926;2023-09-30T09:17:39;5.00;;;2.50;;
52982;SDS011;48698;45.736;13.926;2023-09-30T09:22:45;5.15;;;2.63;;
52982;SDS011;48698;45.736;13.926;2023-09-30T09:27:53;5.93;;;2.70;;
52982;SDS011;48698;45.736;13.926;2023-09-30T09:33:01;6.22;;;3.05;;
52982;SDS011;48698;45.736;13.926;2023-09-30T09:38:08;5.43;;;3.13;;
52982;SDS011;48698;45.736;13.926;2023-09-30T09:43:11;4.50;;;2.90;;
52982;SDS011;48698;45.736;13.926;2023-09-30T09:48:15;4.25;;;2.78;;
52982;SDS011;48698;45.736;13.926;2023-09-30T09:53:19;5.13;;;3.00;;
52982;SDS011;48698;45.736;13.926;2023-09-30T09:58:24;7.47;;;2.78;;
52982;SDS011;48698;45.736;13.926;2023-09-30T10:12:59;4.72;;;2.72;;
52982;SDS011;48698;45.736;13.926;2023-09-30T10:18:07;6.57;;;2.13;;
52982;SDS011;48698;45.736;13.926;2023-09-30T10:28:40;2.75;;;2.28;;
52982;SDS011;48698;45.736;13.926;2023-09-30T10:39:12;9.02;;;2.45;;
52982;SDS011;48698;45.736;13.926;2023-09-30T10:49:32;5.43;;;3.17;;
52982;SDS011;48698;45.736;13.926;2023-09-30T10:54:36;5.20;;;3.40;;
52982;SDS011;48698;45.736;13.926;2023-09-30T10:59:40;7.20;;;3.20;;
52982;SDS011;48698;45.736;13.926;2023-09-30T11:09:50;7.95;;;3.30;;
52982;SDS011;48698;45.736;13.926;2023-09-30T11:15:03;5.38;;;2.92;;
52982;SDS011;48698;45.736;13.926;2023-09-30T11:25:15;5.72;;;3.20;;
52982;SDS011;48698;45.736;13.926;2023-09-30T11:30:20;5.53;;;2.90;;
52982;SDS011;48698;45.736;13.926;2023-09-30T11:40:27;5.68;;;3.20;;
52982;SDS011;48698;45.736;13.926;2023-09-30T11:50:44;6.13;;;3.42;;
52982;SDS011;48698;45.736;13.926;2023-09-30T11:55:59;5.43;;;3.35;;
52982;SDS011;48698;45.736;13.926;2023-09-30T12:01:03;6.05;;;3.50;;
52982;SDS011;48698;45.736;13.926;2023-09-30T12:06:10;8.05;;;3.22;;
52982;SDS011;48698;45.736;13.926;2023-09-30T12:11:17;6.20;;;3.50;;
52982;SDS011;48698;45.736;13.926;2023-09-30T12:16:21;4.63;;;3.17;;
52982;SDS011;48698;45.736;13.926;2023-09-30T12:21:26;5.22;;;2.97;;
52982;SDS011;48698;45.736;13.926;2023-09-30T12:26:30;9.15;;;3.42;;
52982;SDS011;48698;45.736;13.926;2023-09-30T12:31:34;8.07;;;2.97;;
52982;SDS011;48698;45.736;13.926;2023-09-30T12:36:54;7.90;;;3.70;;
52982;SDS011;48698;45.736;13.926;2023-09-30T12:42:01;4.55;;;3.25;;
52982;SDS011;48698;45.736;13.926;2023-09-30T12:47:12;9.05;;;3.38;;
52982;SDS011;48698;45.736;13.926;2023-09-30T12:52:16;4.22;;;3.13;;
52982;SDS011;48698;45.736;13.926;2023-09-30T12:57:20;9.63;;;3.30;;
52982;SDS011;48698;45.736;13.926;2023-09-30T13:02:26;6.78;;;3.65;;
52982;SDS011;48698;45.736;13.926;2023-09-30T13:07:30;6.43;;;3.78;;
52982;SDS011;48698;45.736;13.926;2023-09-30T13:12:34;5.78;;;3.55;;
52982;SDS011;48698;45.736;13.926;2023-09-30T13:17:38;10.18;;;3.15;;
52982;SDS011;48698;45.736;13.926;2023-09-30T13:22:42;6.32;;;3.50;;
52982;SDS011;48698;45.736;13.926;2023-09-30T13:27:46;5.65;;;3.30;;
52982;SDS011;48698;45.736;13.926;2023-09-30T13:32:52;5.10;;;3.00;;
52982;SDS011;48698;45.736;13.926;2023-09-30T13:37:56;7.25;;;3.67;;
52982;SDS011;48698;45.736;13.926;2023-09-30T13:43:00;5.50;;;3.15;;
52982;SDS011;48698;45.736;13.926;2023-09-30T13:48:03;6.93;;;3.63;;
52982;SDS011;48698;45.736;13.926;2023-09-30T13:53:07;5.82;;;3.13;;
52982;SDS011;48698;45.736;13.926;2023-09-30T13:58:15;6.20;;;3.47;;
52982;SDS011;48698;45.736;13.926;2023-09-30T14:03:19;5.53;;;3.72;;
52982;SDS011;48698;45.736;13.926;2023-09-30T14:08:23;6.60;;;3.40;;
52982;SDS011;48698;45.736;13.926;2023-09-30T14:13:27;5.55;;;3.55;;
52982;SDS011;48698;45.736;13.926;2023-09-30T14:18:30;5.18;;;3.63;;
52982;SDS011;48698;45.736;13.926;2023-09-30T14:28:41;6.53;;;3.30;;
52982;SDS011;48698;45.736;13.926;2023-09-30T14:33:45;10.90;;;3.35;;
52982;SDS011;48698;45.736;13.926;2023-09-30T14:38:49;9.05;;;3.30;;
52982;SDS011;48698;45.736;13.926;2023-09-30T14:44:09;6.18;;;3.35;;
52982;SDS011;48698;45.736;13.926;2023-09-30T14:49:15;5.93;;;3.58;;
52982;SDS011;48698;45.736;13.926;2023-09-30T14:54:18;7.35;;;3.47;;
52982;SDS011;48698;45.736;13.926;2023-09-30T14:59:22;5.80;;;3.22;;
52982;SDS011;48698;45.736;13.926;2023-09-30T15:04:26;7.70;;;4.00;;
52982;SDS011;48698;45.736;13.926;2023-09-30T15:09:31;4.85;;;3.47;;
52982;SDS011;48698;45.736;13.926;2023-09-30T15:14:35;6.05;;;3.53;;
52982;SDS011;48698;45.736;13.926;2023-09-30T15:24:42;7.20;;;3.75;;
52982;SDS011;48698;45.736;13.926;2023-09-30T15:29:46;5.97;;;3.75;;
52982;SDS011;48698;45.736;13.926;2023-09-30T15:39:54;5.85;;;3.30;;
52982;SDS011;48698;45.736;13.926;2023-09-30T15:44:58;6.68;;;3.70;;
52982;SDS011;48698;45.736;13.926;2023-09-30T15:50:02;4.95;;;3.38;;
52982;SDS011;48698;45.736;13.926;2023-09-30T15:55:06;4.72;;;3.50;;
52982;SDS011;48698;45.736;13.926;2023-09-30T16:00:10;10.68;;;4.25;;
52982;SDS011;48698;45.736;13.926;2023-09-30T16:05:14;9.20;;;3.55;;
52982;SDS011;48698;45.736;13.926;2023-09-30T16:10:18;6.47;;;3.95;;
52982;SDS011;48698;45.736;13.926;2023-09-30T16:15:22;14.93;;;4.03;;
52982;SDS011;48698;45.736;13.926;2023-09-30T16:20:26;6.22;;;4.15;;
52982;SDS011;48698;45.736;13.926;2023-09-30T16:25:30;6.82;;;3.72;;
52982;SDS011;48698;45.736;13.926;2023-09-30T16:30:33;5.93;;;3.90;;
52982;SDS011;48698;45.736;13.926;2023-09-30T16:35:38;6.00;;;4.00;;
52982;SDS011;48698;45.736;13.926;2023-09-30T16:40:45;4.82;;;3.72;;
52982;SDS011;48698;45.736;13.926;2023-09-30T16:45:52;9.48;;;3.88;;
52982;SDS011;48698;45.736;13.926;2023-09-30T16:50:55;6.05;;;4.00;;
52982;SDS011;48698;45.736;13.926;2023-09-30T16:56:02;6.47;;;4.15;;
52982;SDS011;48698;45.736;13.926;2023-09-30T17:01:09;6.15;;;4.13;;
52982;SDS011;48698;45.736;13.926;2023-09-30T17:06:16;11.30;;;3.95;;
52982;SDS011;48698;45.736;13.926;2023-09-30T17:11:20;10.00;;;3.97;;
52982;SDS011;48698;45.736;13.926;2023-09-30T17:16:24;8.43;;;4.70;;
52982;SDS011;48698;45.736;13.926;2023-09-30T17:21:28;8.82;;;4.68;;
52982;SDS011;48698;45.736;13.926;2023-09-30T17:26:32;6.45;;;4.47;;
52982;SDS011;48698;45.736;13.926;2023-09-30T17:31:36;5.03;;;3.78;;
52982;SDS011;48698;45.736;13.926;2023-09-30T17:36:40;7.80;;;4.38;;
52982;SDS011;48698;45.736;13.926;2023-09-30T17:41:44;8.73;;;4.97;;
52982;SDS011;48698;45.736;13.926;2023-09-30T17:46:49;6.63;;;4.25;;
52982;SDS011;48698;45.736;13.926;2023-09-30T17:51:52;5.57;;;4.13;;
52982;SDS011;48698;45.736;13.926;2023-09-30T17:56:56;7.10;;;4.87;;
52982;SDS011;48698;45.736;13.926;2023-09-30T18:01:59;5.88;;;4.65;;
52982;SDS011;48698;45.736;13.926;2023-09-30T18:07:08;7.63;;;5.13;;
52982;SDS011;48698;45.736;13.926;2023-09-30T18:12:12;10.15;;;5.43;;
52982;SDS011;48698;45.736;13.926;2023-09-30T18:17:15;8.73;;;5.10;;
52982;SDS011;48698;45.736;13.926;2023-09-30T18:22:21;8.13;;;5.15;;
52982;SDS011;48698;45.736;13.926;2023-09-30T18:32:28;16.75;;;5.30;;
52982;SDS011;48698;45.736;13.926;2023-09-30T18:37:32;7.30;;;5.13;;
52982;SDS011;48698;45.736;13.926;2023-09-30T18:42:36;9.95;;;5.72;;
52982;SDS011;48698;45.736;13.926;2023-09-30T18:47:39;10.07;;;6.47;;
52982;SDS011;48698;45.736;13.926;2023-09-30T18:52:43;8.23;;;5.50;;
52982;SDS011;48698;45.736;13.926;2023-09-30T18:57:46;8.40;;;5.07;;
52982;SDS011;48698;45.736;13.926;2023-09-30T19:02:50;9.73;;;5.22;;
52982;SDS011;48698;45.736;13.926;2023-09-30T19:07:54;11.48;;;4.90;;
52982;SDS011;48698;45.736;13.926;2023-09-30T19:12:57;9.13;;;5.23;;
52982;SDS011;48698;45.736;13.926;2023-09-30T19:18:02;8.55;;;5.25;;
52982;SDS011;48698;45.736;13.926;2023-09-30T19:23:05;8.07;;;4.95;;
52982;SDS011;48698;45.736;13.926;2023-09-30T19:28:10;9.52;;;5.28;;
52982;SDS011;48698;45.736;13.926;2023-09-30T19:33:13;10.15;;;5.25;;
52982;SDS011;48698;45.736;13.926;2023-09-30T19:38:18;7.70;;;4.97;;
52982;SDS011;48698;45.736;13.926;2023-09-30T19:43:22;5.95;;;4.60;;
52982;SDS011;48698;45.736;13.926;2023-09-30T19:48:27;10.30;;;5.05;;
52982;SDS011;48698;45.736;13.926;2023-09-30T19:53:30;6.65;;;4.93;;
52982;SDS011;48698;45.736;13.926;2023-09-30T19:58:34;7.65;;;4.63;;
52982;SDS011;48698;45.736;13.926;2023-09-30T20:03:38;11.25;;;4.88;;
52982;SDS011;48698;45.736;13.926;2023-09-30T20:08:42;8.85;;;5.47;;
52982;SDS011;48698;45.736;13.926;2023-09-30T20:13:47;10.35;;;5.18;;
52982;SDS011;48698;45.736;13.926;2023-09-30T20:18:51;7.82;;;5.15;;
52982;SDS011;48698;45.736;13.926;2023-09-30T20:23:54;14.87;;;4.93;;
52982;SDS011;48698;45.736;13.926;2023-09-30T20:28:58;7.50;;;4.97;;
52982;SDS011;48698;45.736;13.926;2023-09-30T20:34:04;9.20;;;5.05;;
52982;SDS011;48698;45.736;13.926;2023-09-30T20:39:09;10.10;;;4.93;;
52982;SDS011;48698;45.736;13.926;2023-09-30T20:44:13;12.70;;;5.45;;
52982;SDS011;48698;45.736;13.926;2023-09-30T20:49:17;9.13;;;5.23;;
52982;SDS011;48698;45.736;13.926;2023-09-30T20:59:25;7.15;;;5.57;;
52982;SDS011;48698;45.736;13.926;2023-09-30T21:04:30;9.60;;;6.13;;
52982;SDS011;48698;45.736;13.926;2023-09-30T21:09:33;7.63;;;5.47;;
52982;SDS011;48698;45.736;13.926;2023-09-30T21:14:37;7.07;;;5.37;;
52982;SDS011;48698;45.736;13.926;2023-09-30T21:19:41;8.52;;;5.75;;
52982;SDS011;48698;45.736;13.926;2023-09-30T21:24:45;7.50;;;5.63;;
52982;SDS011;48698;45.736;13.926;2023-09-30T21:29:48;10.87;;;6.07;;
52982;SDS011;48698;45.736;13.926;2023-09-30T21:34:52;8.70;;;6.03;;
52982;SDS011;48698;45.736;13.926;2023-09-30T21:39:56;9.50;;;6.35;;
52982;SDS011;48698;45.736;13.926;2023-09-30T21:44:59;8.57;;;5.65;;
52982;SDS011;48698;45.736;13.926;2023-09-30T21:50:03;14.88;;;6.28;;
52982;SDS011;48698;45.736;13.926;2023-09-30T21:55:07;11.02;;;5.97;;
52982;SDS011;48698;45.736;13.926;2023-09-30T22:00:11;8.05;;;5.40;;
52982;SDS011;48698;45.736;13.926;2023-09-30T22:05:17;7.82;;;5.30;;
52982;SDS011;48698;45.736;13.926;2023-09-30T22:10:21;8.27;;;5.55;;
52982;SDS011;48698;45.736;13.926;2023-09-30T22:20:31;6.25;;;5.20;;
52982;SDS011;48698;45.736;13.926;2023-09-30T22:25:36;7.35;;;5.57;;
52982;SDS011;48698;45.736;13.926;2023-09-30T22:30:40;9.48;;;5.93;;
52982;SDS011;48698;45.736;13.926;2023-09-30T22:35:44;6.40;;;5.50;;
52982;SDS011;48698;45.736;13.926;2023-09-30T22:40:48;15.20;;;6.00;;
52982;SDS011;48698;45.736;13.926;2023-09-30T22:45:51;7.07;;;5.47;;
52982;SDS011;48698;45.736;13.926;2023-09-30T22:50:54;8.90;;;5.83;;
52982;SDS011;48698;45.736;13.926;2023-09-30T22:55:58;9.60;;;5.73;;
52982;SDS011;48698;45.736;13.926;2023-09-30T23:01:01;11.57;;;5.95;;
52982;SDS011;48698;45.736;13.926;2023-09-30T23:06:05;9.38;;;5.80;;
52982;SDS011;48698;45.736;13.926;2023-09-30T23:11:09;11.87;;;6.57;;
52982;SDS011;48698;45.736;13.926;2023-09-30T23:16:14;8.98;;;5.75;;
52982;SDS011;48698;45.736;13.926;2023-09-30T23:21:19;9.93;;;5.40;;
52982;SDS011;48698;45.736;13.926;2023-09-30T23:26:23;7.82;;;5.47;;
52982;SDS011;48698;45.736;13.926;2023-09-30T23:31:26;8.30;;;5.40;;
52982;SDS011;48698;45.736;13.926;2023-09-30T23:36:30;9.20;;;5.60;;
52982;SDS011;48698;45.736;13.926;2023-09-30T23:41:34;6.70;;;4.17;;
52982;SDS011;48698;45.736;13.926;2023-09-30T23:46:37;9.07;;;5.37;;
52982;SDS011;48698;45.736;13.926;2023-09-30T23:51:41;8.15;;;5.18;;
52982;SDS011;48698;45.736;13.926;2023-09-30T23:56:47;11.75;;;5.13;;
